Chester, UT

2:55 PM MDT on October 23, 2014 (GMT -0600)
KUTSPRIN7 | Change Station
CLOSE
Current Station
Personal Weather Station
Location: Spring City, UT
Elevation: 1780 m
Nearby Weather Stations

Elev 1780 m 39.48 °N, 111.49 °W | Updated 10 minutes ago

Clear
Clear
22.7 °C
Feels Like 24 °C
N
3.2
Wind Variable Wind from SSW
Gusts 14.5 km/h

Today
High -- | Low -- °C
--% Chance of Precip.
Yesterday
High -- | Low -- °C
Precip. -- mm
7:44 AM 6:35 PM
Waning Crescent, 0% visible
Pressure 1021 hPa
Visibility 16.1 kilometers
Clouds Clear
Heat Index 24 °C
Dew Point -3 °C
Humidity 18%
Rainfall 0 mm
Snow Depth Not available.
UV 3.4 out of 12
Pollen 1.70 out of 12
Air Quality Not available.
Flu Activity Sporadic
METAR KPUC 231953Z AUTO 14007KT 10SM CLR 18/M01 A3024 RMK AO2 SLP209 T01781011 TSNO

More Conditions Fewer Conditions

Pressure 1021 hPa
Visibility 16.1 kilometers
Clouds Clear
Heat Index 24 °C
Dew Point -3 °C
Humidity 18%
Rainfall 0 mm
Snow Depth Not available.
UV 3.4 out of 12
Pollen 1.70 out of 12
Air Quality Not available.
Flu Activity Sporadic
METAR KPUC 231953Z AUTO 14007KT 10SM CLR 18/M01 A3024 RMK AO2 SLP209 T01781011 TSNO

More Conditions Fewer Conditions

10-Day Weather Forecast

Almanac

Astronomy

Oct. 23, 2014 Rise Set
Actual Time 7:44 AM MDT 6:35 PM MDT
Civil Twilight 7:17 AM MDT 7:03 PM MDT
Nautical Twilight 6:45 AM MDT 7:34 PM MDT
Astronomical Twilight 6:14 AM MDT 8:05 PM MDT
Moon 7:28 AM MDT 6:39 PM MDT
Length of Visible Light 11h 45m
Length of Day
10h 51m
Tomorrow will be 2m 23s shorter.
Waning Crescent, 0% of the Moon is Illuminated
Today
Waning Crescent
Oct 23
New
Oct 30
First Quarter
Nov 6
Full
Nov 14
Last Quarter

Today's Extremes

State Highs State Lows

Community

WunderPhotos

Upload Photos

1,764,362 photos uploaded!

WunderBlogs® & News

By Dr. Jeff Masters
Director of Meteorology, Weather Underground
By Kari Strenfel
Meteorologist, Weather Underground
By Christopher C. Burt
Weather Historian, Weather Underground
October 23, 2014
October 23, 2014
October 23, 2014

Nearby

Snow Depth

Station Depth Elevation
Pickle Keg 0 in 9600 ft
Gooseberry R.S. 0 in 7920 ft
Farnsworth Lake 0 in 9600 ft
Cascade Mountain 1 in 7768 ft
Daniels-Strawberry 0 in 8000 ft

Earthquake Activity

City Distance Mag. Time & Date
Ferron, Utah 57 kilometers 2.5 10:53 PM MDT
2014-10-21
Minimum magnitude displayed is 2.5.

Coastal Water Temperatures

Place Temperature
No Stations Reporting

Nearby Weather Stations